Time,TemperatureF,DewpointF,PressureIn,WindDirection,WindDirectionDegrees,WindSpeedMPH,WindSpeedGustMPH,Humidity,HourlyPrecipIn,Conditions,Clouds,dailyrainin,SoftwareType,DateUTC
2013-03-12 00:00:00,50.2,48.0,30.04,SSE,164,1.0,2.0,92,0.00,,,0.00,weatherlink.com 1.10,2013-03-12 04:00:00,
2013-03-12 00:15:00,50.0,48.0,30.02,South,177,0.0,0.0,92,0.00,,,0.00,weatherlink.com 1.10,2013-03-12 04:15:00,
2013-03-12 00:30:00,49.8,48.0,30.02,South,173,0.0,2.0,93,0.00,,,0.00,weatherlink.com 1.10,2013-03-12 04:30:00,
2013-03-12 00:45:00,49.9,48.0,30.00,SE,136,1.0,3.0,93,0.00,,,0.00,weatherlink.com 1.10,2013-03-12 04:45:00,
2013-03-12 01:00:00,49.9,48.0,30.00,ESE,123,0.0,2.0,93,0.00,,,0.00,weatherlink.com 1.10,2013-03-12 05:00:00,
2013-03-12 01:15:00,50.0,48.0,29.97,ESE,121,4.0,5.0,92,0.00,,,0.00,weatherlink.com 1.10,2013-03-12 05:15:00,
2013-03-12 01:30:00,50.5,48.0,29.97,ESE,118,2.0,7.0,92,0.00,,,0.00,weatherlink.com 1.10,2013-03-12 05:30:00,
2013-03-12 01:45:00,51.0,48.0,29.95,ESE,115,1.0,7.0,90,0.00,,,0.00,weatherlink.com 1.10,2013-03-12 05:45:00,
2013-03-12 02:00:00,51.4,49.0,29.96,South,187,2.0,7.0,90,0.00,,,0.00,weatherlink.com 1.10,2013-03-12 06:00:00,
2013-03-12 02:15:00,51.8,49.0,29.96,SSE,156,1.0,6.0,89,0.00,,,0.00,weatherlink.com 1.10,2013-03-12 06:15:00,
2013-03-12 02:30:00,52.1,49.0,29.95,SE,145,1.0,6.0,88,0.00,,,0.00,weatherlink.com 1.10,2013-03-12 06:30:00,
2013-03-12 02:45:00,52.2,49.0,29.94,ESE,123,3.0,4.0,88,0.00,,,0.00,weatherlink.com 1.10,2013-03-12 06:45:00,
2013-03-12 03:00:00,52.2,49.0,29.93,SE,144,4.0,4.0,87,0.00,,,0.00,weatherlink.com 1.10,2013-03-12 07:00:00,
2013-03-12 03:15:00,52.3,49.0,29.93,SE,129,2.0,2.0,87,0.00,,,0.00,weatherlink.com 1.10,2013-03-12 07:15:00,
2013-03-12 03:30:00,52.3,48.0,29.93,SE,134,1.0,2.0,86,0.00,,,0.00,weatherlink.com 1.10,2013-03-12 07:30:00,
2013-03-12 03:45:00,52.3,48.0,29.93,SSE,149,0.0,3.0,86,0.00,,,0.00,weatherlink.com 1.10,2013-03-12 07:45:00,
2013-03-12 04:00:00,52.6,48.0,29.92,SSE,163,1.0,5.0,85,0.00,,,0.00,weatherlink.com 1.10,2013-03-12 08:00:00,
2013-03-12 04:15:00,53.2,49.0,29.92,SSE,168,2.0,4.0,85,0.00,,,0.00,weatherlink.com 1.10,2013-03-12 08:15:00,
2013-03-12 04:31:00,53.5,49.0,29.91,SSE,161,0.0,3.0,84,0.00,,,0.00,weatherlink.com 1.10,2013-03-12 08:31:00,
2013-03-12 04:45:00,53.7,49.0,29.91,South,172,1.0,6.0,84,0.00,,,0.00,weatherlink.com 1.10,2013-03-12 08:45:00,
2013-03-12 05:01:00,53.7,50.0,29.90,ESE,120,1.0,3.0,86,0.01,,,0.01,weatherlink.com 1.10,2013-03-12 09:01:00,
2013-03-12 05:16:00,53.2,50.0,29.89,South,184,0.0,4.0,87,0.01,,,0.01,weatherlink.com 1.10,2013-03-12 09:16:00,
2013-03-12 05:31:00,53.0,50.0,29.89,SE,125,2.0,6.0,89,0.02,,,0.02,weatherlink.com 1.10,2013-03-12 09:31:00,
2013-03-12 05:46:00,52.7,50.0,29.88,SSW,205,2.0,4.0,90,0.03,,,0.03,weatherlink.com 1.10,2013-03-12 09:46:00,
2013-03-12 06:01:00,52.7,50.0,29.88,South,174,0.0,3.0,90,0.02,,,0.03,weatherlink.com 1.10,2013-03-12 10:01:00,
2013-03-12 06:16:00,52.9,50.0,29.89,SE,146,4.0,6.0,90,0.02,,,0.03,weatherlink.com 1.10,2013-03-12 10:16:00,
2013-03-12 06:46:00,53.2,51.0,29.89,SSE,168,2.0,4.0,91,0.01,,,0.04,weatherlink.com 1.10,2013-03-12 10:46:00,
2013-03-12 07:01:00,53.3,51.0,29.88,South,171,1.0,6.0,91,0.02,,,0.05,weatherlink.com 1.10,2013-03-12 11:01:00,
2013-03-12 07:16:00,53.2,51.0,29.88,SE,141,1.0,4.0,92,0.02,,,0.05,weatherlink.com 1.10,2013-03-12 11:16:00,
2013-03-12 07:31:00,53.1,51.0,29.88,SSE,153,0.0,3.0,92,0.01,,,0.05,weatherlink.com 1.10,2013-03-12 11:31:00,
2013-03-12 07:46:00,53.0,51.0,29.87,SE,129,2.0,5.0,92,0.02,,,0.06,weatherlink.com 1.10,2013-03-12 11:46:00,
2013-03-12 08:46:00,53.3,51.0,29.86,SE,143,1.0,5.0,93,0.01,,,0.07,weatherlink.com 1.10,2013-03-12 12:46:00,
2013-03-12 09:16:00,53.9,52.0,29.85,SSE,148,2.0,9.0,92,0.01,,,0.08,weatherlink.com 1.10,2013-03-12 13:16:00,
2013-03-12 09:31:00,54.1,52.0,29.85,SSE,163,2.0,8.0,92,0.02,,,0.09,weatherlink.com 1.10,2013-03-12 13:31:00,
2013-03-12 09:46:00,54.2,52.0,29.84,South,180,2.0,7.0,93,0.02,,,0.09,weatherlink.com 1.10,2013-03-12 13:46:00,
2013-03-12 10:01:00,54.4,53.0,29.83,SE,146,4.0,9.0,93,0.01,,,0.09,weatherlink.com 1.10,2013-03-12 14:01:00,
2013-03-12 10:16:00,54.4,53.0,29.82,SW,216,2.0,9.0,93,0.02,,,0.10,weatherlink.com 1.10,2013-03-12 14:16:00,
2013-03-12 10:31:00,54.4,53.0,29.82,South,173,1.0,12.0,93,0.03,,,0.12,weatherlink.com 1.10,2013-03-12 14:31:00,
2013-03-12 10:46:00,54.2,53.0,29.82,South,188,2.0,5.0,94,0.06,,,0.15,weatherlink.com 1.10,2013-03-12 14:46:00,
2013-03-12 11:01:00,54.2,53.0,29.81,SE,136,2.0,7.0,95,0.07,,,0.16,weatherlink.com 1.10,2013-03-12 15:01:00,
2013-03-12 11:31:00,54.3,53.0,29.78,SSE,167,2.0,9.0,95,0.06,,,0.18,weatherlink.com 1.10,2013-03-12 15:31:00,
2013-03-12 11:46:00,54.4,53.0,29.77,ESE,114,2.0,8.0,95,0.03,,,0.18,weatherlink.com 1.10,2013-03-12 15:46:00,
2013-03-12 12:01:00,54.6,53.0,29.77,SW,232,0.0,8.0,95,0.03,,,0.19,weatherlink.com 1.10,2013-03-12 16:01:00,
2013-03-12 12:31:00,55.1,54.0,29.75,SSE,162,5.0,10.0,94,0.01,,,0.19,weatherlink.com 1.10,2013-03-12 16:31:00,
2013-03-12 13:02:00,55.4,54.0,29.73,SSE,163,5.0,11.0,94,0.02,,,0.21,weatherlink.com 1.10,2013-03-12 17:02:00,
2013-03-12 13:31:00,55.4,54.0,29.71,South,189,4.0,9.0,94,0.06,,,0.25,weatherlink.com 1.10,2013-03-12 17:31:00,
2013-03-12 13:46:00,55.4,54.0,29.69,South,191,3.0,9.0,95,0.07,,,0.27,weatherlink.com 1.10,2013-03-12 17:46:00,
2013-03-12 14:02:00,55.5,54.0,29.68,South,188,4.0,9.0,95,0.08,,,0.29,weatherlink.com 1.10,2013-03-12 18:02:00,
2013-03-12 14:17:00,55.7,54.0,29.66,SSE,163,2.0,10.0,95,0.08,,,0.31,weatherlink.com 1.10,2013-03-12 18:17:00,
2013-03-12 14:32:00,55.8,54.0,29.65,South,180,11.0,11.0,95,0.06,,,0.31,weatherlink.com 1.10,2013-03-12 18:32:00,
2013-03-12 14:47:00,56.2,55.0,29.64,SSE,151,1.0,13.0,95,0.06,,,0.33,weatherlink.com 1.10,2013-03-12 18:47:00,
2013-03-12 15:17:00,56.3,55.0,29.63,South,170,2.0,7.0,96,0.12,,,0.43,weatherlink.com 1.10,2013-03-12 19:17:00,
2013-03-12 15:32:00,56.1,55.0,29.63,South,184,1.0,5.0,96,0.19,,,0.50,weatherlink.com 1.10,2013-03-12 19:32:00,
2013-03-12 15:47:00,56.4,56.0,29.62,SW,221,4.0,7.0,97,0.21,,,0.54,weatherlink.com 1.10,2013-03-12 19:47:00,
2013-03-12 16:02:00,57.0,56.0,29.62,WSW,248,3.0,6.0,97,0.17,,,0.54,weatherlink.com 1.10,2013-03-12 20:02:00,
2013-03-12 16:17:00,57.1,56.0,29.61,SW,234,3.0,7.0,97,0.12,,,0.55,weatherlink.com 1.10,2013-03-12 20:17:00,
2013-03-12 16:32:00,57.3,57.0,29.61,SW,216,2.0,7.0,97,0.05,,,0.55,weatherlink.com 1.10,2013-03-12 20:32:00,
2013-03-12 16:47:00,57.4,57.0,29.61,WSW,238,4.0,4.0,97,0.01,,,0.55,weatherlink.com 1.10,2013-03-12 20:47:00,
2013-03-12 17:02:00,57.4,57.0,29.62,West,275,8.0,10.0,97,0.03,,,0.57,weatherlink.com 1.10,2013-03-12 21:02:00,
2013-03-12 17:17:00,57.3,56.0,29.62,West,273,0.0,6.0,96,0.02,,,0.57,weatherlink.com 1.10,2013-03-12 21:17:00,
2013-03-12 17:32:00,57.3,56.0,29.63,WSW,243,1.0,6.0,95,0.02,,,0.57,weatherlink.com 1.10,2013-03-12 21:32:00,
2013-03-12 17:47:00,57.0,56.0,29.64,West,267,1.0,7.0,95,0.02,,,0.57,weatherlink.com 1.10,2013-03-12 21:47:00,
2013-03-12 18:02:00,56.8,55.0,29.65,West,259,6.0,8.0,93,0.00,,,0.57,weatherlink.com 1.10,2013-03-12 22:02:00,
2013-03-12 18:17:00,56.2,54.0,29.67,WSW,248,1.0,17.0,91,0.00,,,0.57,weatherlink.com 1.10,2013-03-12 22:17:00,
2013-03-12 18:32:00,55.8,53.0,29.68,West,271,2.0,11.0,90,0.00,,,0.57,weatherlink.com 1.10,2013-03-12 22:32:00,
2013-03-12 18:47:00,55.5,52.0,29.69,West,273,2.0,6.0,89,0.00,,,0.57,weatherlink.com 1.10,2013-03-12 22:47:00,
2013-03-12 19:02:00,55.0,52.0,29.70,West,281,5.0,9.0,88,0.00,,,0.57,weatherlink.com 1.10,2013-03-12 23:02:00,
2013-03-12 19:17:00,54.4,50.0,29.71,WNW,293,3.0,14.0,84,0.00,,,0.57,weatherlink.com 1.10,2013-03-12 23:17:00,
2013-03-12 19:32:00,53.6,49.0,29.71,West,268,2.0,7.0,84,0.00,,,0.57,weatherlink.com 1.10,2013-03-12 23:32:00,
2013-03-12 19:47:00,53.2,48.0,29.73,West,281,2.0,7.0,82,0.00,,,0.57,weatherlink.com 1.10,2013-03-12 23:47:00,
2013-03-12 20:02:00,52.8,48.0,29.74,NW,324,0.0,4.0,83,0.00,,,0.57,weatherlink.com 1.10,2013-03-13 00:02:00,
2013-03-12 20:17:00,52.3,47.0,29.74,WNW,284,1.0,10.0,81,0.00,,,0.57,weatherlink.com 1.10,2013-03-13 00:17:00,
2013-03-12 20:32:00,51.9,45.0,29.74,West,273,5.0,12.0,78,0.00,,,0.57,weatherlink.com 1.10,2013-03-13 00:32:00,
2013-03-12 20:47:00,51.4,45.0,29.75,West,275,3.0,5.0,79,0.00,,,0.57,weatherlink.com 1.10,2013-03-13 00:47:00,
2013-03-12 21:17:00,50.5,44.0,29.77,North,351,8.0,8.0,79,0.00,,,0.57,weatherlink.com 1.10,2013-03-13 01:17:00,
2013-03-12 21:32:00,49.7,43.0,29.77,NNW,344,2.0,8.0,78,0.00,,,0.57,weatherlink.com 1.10,2013-03-13 01:32:00,
2013-03-12 21:47:00,49.0,42.0,29.78,WSW,250,3.0,9.0,77,0.00,,,0.57,weatherlink.com 1.10,2013-03-13 01:47:00,
2013-03-12 22:02:00,48.3,41.0,29.78,NW,324,3.0,8.0,76,0.00,,,0.57,weatherlink.com 1.10,2013-03-13 02:02:00,
2013-03-12 22:17:00,47.8,41.0,29.78,North,355,3.0,6.0,76,0.00,,,0.57,weatherlink.com 1.10,2013-03-13 02:17:00,
2013-03-12 22:32:00,47.4,40.0,29.79,WSW,256,3.0,9.0,76,0.00,,,0.57,weatherlink.com 1.10,2013-03-13 02:32:00,
2013-03-12 22:47:00,46.7,40.0,29.79,West,262,3.0,8.0,76,0.00,,,0.57,weatherlink.com 1.10,2013-03-13 02:47:00,
2013-03-12 23:02:00,46.1,39.0,29.79,NW,319,1.0,5.0,77,0.00,,,0.57,weatherlink.com 1.10,2013-03-13 03:02:00,
2013-03-12 23:17:00,45.5,39.0,29.79,NNW,329,5.0,8.0,78,0.00,,,0.57,weatherlink.com 1.10,2013-03-13 03:17:00,
2013-03-12 23:32:00,45.1,39.0,29.79,NW,314,0.0,7.0,79,0.00,,,0.57,weatherlink.com 1.10,2013-03-13 03:32:00,
2013-03-12 23:48:00,44.5,39.0,29.79,NNW,329,3.0,4.0,80,0.00,,,0.57,weatherlink.com 1.10,2013-03-13 03:48:00,